createdAt,value
2023-06-07T00:01:47.231Z,13.21
2023-06-07T00:11:49.542Z,13.16
2023-06-07T00:21:55.301Z,13.08
2023-06-07T00:31:57.549Z,12.99
2023-06-07T00:41:59.886Z,12.91
2023-06-07T00:52:02.302Z,12.83
2023-06-07T01:02:04.638Z,12.73
2023-06-07T01:12:07.951Z,12.65
2023-06-07T01:22:12.047Z,12.57
2023-06-07T01:32:14.443Z,12.47
2023-06-07T01:42:17.647Z,12.40
2023-06-07T01:52:19.907Z,12.33
2023-06-07T02:02:29.280Z,12.27
2023-06-07T02:12:31.917Z,12.18
2023-06-07T02:22:34.177Z,12.09
2023-06-07T02:32:36.783Z,12.00
2023-06-07T02:42:39.178Z,11.94
2023-06-07T02:52:42.957Z,11.87
2023-06-07T03:02:45.194Z,11.80
2023-06-07T03:12:47.797Z,11.73
2023-06-07T03:22:50.732Z,11.62
2023-06-07T03:32:53.581Z,11.56
2023-06-07T03:42:55.808Z,11.41
2023-06-07T03:52:58.030Z,11.36
2023-06-07T04:03:01.453Z,11.38
2023-06-07T04:13:03.906Z,11.56
2023-06-07T04:23:07.152Z,11.82
2023-06-07T04:33:11.515Z,12.07
2023-06-07T04:43:14.346Z,12.41
2023-06-07T04:53:21.155Z,12.69
2023-06-07T05:03:23.468Z,12.94
2023-06-07T05:13:26.112Z,13.22
2023-06-07T05:23:28.997Z,13.53
2023-06-07T05:33:32.564Z,13.92
2023-06-07T05:43:35.210Z,14.29
2023-06-07T05:53:37.682Z,14.75
2023-06-07T06:03:40.708Z,15.17
2023-06-07T06:13:44.276Z,15.62
2023-06-07T06:23:51.647Z,16.23
2023-06-07T06:33:59.331Z,16.83
2023-06-07T06:44:08.641Z,17.43
2023-06-07T06:54:13.258Z,17.92
2023-06-07T07:04:16.879Z,18.38
2023-06-07T07:14:20.697Z,18.78
2023-06-07T07:24:25.872Z,19.15
2023-06-07T07:34:28.734Z,19.55
2023-06-07T07:44:31.720Z,19.99
2023-06-07T07:54:34.863Z,20.42
2023-06-07T08:04:37.815Z,20.77
2023-06-07T08:14:40.691Z,21.20
2023-06-07T08:24:48.768Z,21.59
2023-06-07T08:34:53.152Z,21.95
2023-06-07T08:44:59.043Z,22.31
2023-06-07T08:55:05.714Z,22.58
2023-06-07T09:05:09.814Z,22.85
2023-06-07T09:15:17.347Z,23.26
2023-06-07T09:25:22.525Z,23.69
2023-06-07T09:35:27.006Z,23.87
2023-06-07T09:45:32.445Z,24.05
2023-06-07T09:55:36.307Z,24.48
2023-06-07T10:05:40.285Z,24.90
2023-06-07T10:15:44.905Z,25.20
2023-06-07T10:25:55.435Z,25.50
2023-06-07T10:35:59.071Z,25.65
2023-06-07T10:46:27.054Z,25.95
2023-06-07T10:56:32.686Z,26.60
2023-06-07T11:06:56.357Z,26.69
2023-06-07T11:16:59.719Z,27.08
2023-06-07T11:27:02.965Z,27.36
2023-06-07T11:37:10.875Z,27.48
2023-06-07T11:47:15.260Z,27.61
2023-06-07T11:57:18.815Z,28.11
2023-06-07T12:07:22.974Z,28.63
2023-06-07T12:17:26.479Z,28.84
2023-06-07T12:27:31.978Z,29.08
2023-06-07T12:37:37.175Z,29.28
2023-06-07T12:47:40.750Z,29.77
2023-06-07T12:57:43.995Z,30.07
2023-06-07T13:07:47.304Z,30.41
2023-06-07T13:17:50.596Z,30.63
2023-06-07T13:27:55.579Z,30.93
2023-06-07T13:37:58.513Z,31.15
2023-06-07T13:48:02.272Z,31.28
2023-06-07T13:58:05.474Z,31.89
2023-06-07T14:08:08.832Z,32.20
2023-06-07T14:18:12.029Z,32.26
2023-06-07T14:28:16.533Z,32.99
2023-06-07T14:38:21.793Z,32.38
2023-06-07T14:48:25.493Z,32.64
2023-06-07T14:58:31.793Z,32.89
2023-06-07T15:08:35.258Z,31.22
2023-06-07T15:18:38.742Z,29.62
2023-06-07T15:28:41.682Z,28.99
2023-06-07T15:38:45.045Z,28.20
2023-06-07T15:48:52.835Z,27.70
2023-06-07T15:58:56.290Z,27.37
2023-06-07T16:09:04.782Z,27.07
2023-06-07T16:19:11.537Z,26.79
2023-06-07T16:29:14.639Z,26.51
2023-06-07T16:39:18.356Z,26.62
2023-06-07T16:49:21.694Z,26.77
2023-06-07T16:59:28.032Z,26.23
2023-06-07T17:09:31.900Z,25.80
2023-06-07T17:19:35.479Z,25.48
2023-06-07T17:29:40.475Z,25.60
2023-06-07T17:39:44.636Z,25.41
2023-06-07T17:49:48.408Z,24.86
2023-06-07T17:59:52.130Z,24.93
2023-06-07T18:09:56.721Z,27.29
2023-06-07T18:19:59.776Z,28.68
2023-06-07T18:30:03.859Z,25.76
2023-06-07T18:40:09.296Z,24.22
2023-06-07T18:50:12.639Z,23.29
2023-06-07T19:00:17.853Z,22.62
2023-06-07T19:10:22.810Z,21.81
2023-06-07T19:20:31.362Z,20.98
2023-06-07T19:30:42.343Z,20.24
2023-06-07T19:40:45.805Z,19.55
2023-06-07T19:50:55.199Z,18.93
2023-06-07T20:00:59.410Z,18.41
2023-06-07T20:11:05.569Z,17.98
2023-06-07T20:21:09.065Z,17.60
2023-06-07T20:31:13.808Z,17.24
2023-06-07T20:41:17.061Z,16.93
2023-06-07T20:51:20.314Z,16.65
2023-06-07T21:01:25.476Z,16.43
2023-06-07T21:11:28.928Z,16.25
2023-06-07T21:21:32.142Z,16.10
2023-06-07T21:31:35.483Z,15.97
2023-06-07T21:41:39.962Z,15.78
2023-06-07T21:51:43.077Z,15.63
2023-06-07T22:01:47.799Z,15.47
2023-06-07T22:11:54.161Z,15.32
2023-06-07T22:21:57.915Z,15.15
2023-06-07T22:32:01.118Z,15.00
2023-06-07T22:42:03.921Z,14.86
2023-06-07T22:52:06.833Z,14.72
2023-06-07T23:02:09.701Z,14.57
2023-06-07T23:12:14.493Z,14.45
2023-06-07T23:22:18.490Z,14.30
2023-06-07T23:32:21.163Z,14.19
2023-06-07T23:42:24.517Z,14.11
2023-06-07T23:52:27.050Z,13.98
